Time;durP1;ratioP1;P1;durP2;ratioP2;P2;SDS_P1;SDS_P2;PMS_P1;PMS_P2;Temp;Humidity;BMP_temperature;BMP_pressure;BME280_temperature;BME280_humidity;BME280_pressure;Samples;Min_cycle;Max_cycle;Signal;HPM_P1;HPM_P2
2023/10/22 00:01:15;;;;;;;4.70;4.35;;;10.00;99.90;;;;;;4998683;28;20050;-89
2023/10/22 00:03:41;;;;;;;6.97;5.50;;;10.00;99.90;;;;;;5011834;28;20018;-91
2023/10/22 00:06:07;;;;;;;3.88;3.45;;;10.10;99.90;;;;;;5020921;28;20496;-91
2023/10/22 00:08:32;;;;;;;5.55;5.20;;;10.10;99.90;;;;;;5007640;28;20106;-89
2023/10/22 00:10:58;;;;;;;7.07;4.63;;;10.10;99.90;;;;;;4999992;28;20030;-92
2023/10/22 00:13:24;;;;;;;5.60;5.07;;;10.10;99.90;;;;;;4999948;28;20026;-89
2023/10/22 00:15:49;;;;;;;5.07;4.68;;;10.10;99.90;;;;;;5000170;28;20030;-91
2023/10/22 00:18:15;;;;;;;4.78;4.38;;;10.20;99.90;;;;;;4991334;28;20018;-90
2023/10/22 00:20:41;;;;;;;4.88;4.50;;;10.20;99.90;;;;;;5007663;28;20022;-91
2023/10/22 00:23:07;;;;;;;3.45;3.22;;;10.20;99.90;;;;;;4998461;28;20030;-90
2023/10/22 00:25:36;;;;;;;4.57;4.28;;;10.20;99.90;;;;;;5014635;28;20041;-88
2023/10/22 00:28:03;;;;;;;4.43;4.22;;;10.20;99.90;;;;;;5019311;28;20033;-91
2023/10/22 00:30:30;;;;;;;3.28;2.88;;;10.20;99.90;;;;;;5007971;28;20022;-92
2023/10/22 00:32:56;;;;;;;3.75;3.45;;;10.20;99.90;;;;;;5017535;28;20026;-90
2023/10/22 00:35:21;;;;;;;3.22;2.88;;;10.20;99.90;;;;;;5020650;28;20017;-89
2023/10/22 00:37:47;;;;;;;4.68;4.28;;;10.20;99.90;;;;;;5001898;28;20116;-88
2023/10/22 00:40:14;;;;;;;4.80;2.95;;;10.20;99.90;;;;;;4983599;28;20401;-90
2023/10/22 00:42:40;;;;;;;5.07;4.22;;;10.20;99.90;;;;;;4993654;28;20038;-89
2023/10/22 00:45:07;;;;;;;4.30;2.05;;;10.20;99.90;;;;;;4990487;28;20027;-89
2023/10/22 00:47:34;;;;;;;4.13;3.83;;;10.30;99.90;;;;;;4994837;28;20030;-90
2023/10/22 00:50:00;;;;;;;4.68;2.00;;;10.30;99.50;;;;;;5010682;28;20081;-90
2023/10/22 00:52:27;;;;;;;4.07;3.85;;;10.30;99.50;;;;;;5004390;28;20026;-91
2023/10/22 00:54:54;;;;;;;3.55;3.35;;;10.40;99.30;;;;;;5011953;28;20481;-91
2023/10/22 00:57:21;;;;;;;4.45;4.05;;;10.40;99.20;;;;;;5022175;28;20059;-91
2023/10/22 00:59:46;;;;;;;3.13;2.92;;;10.40;99.30;;;;;;4997370;28;20153;-90
2023/10/22 01:02:12;;;;;;;3.70;3.08;;;10.50;99.20;;;;;;4994017;28;20492;-90
2023/10/22 01:04:38;;;;;;;5.88;3.03;;;10.50;99.20;;;;;;4989353;28;20030;-91
2023/10/22 01:07:05;;;;;;;4.10;2.72;;;10.50;99.20;;;;;;5010173;28;20443;-91
2023/10/22 01:09:30;;;;;;;3.05;2.15;;;10.60;98.90;;;;;;4999082;28;20049;-91
2023/10/22 01:12:02;;;;;;;3.35;3.15;;;10.60;98.70;;;;;;5000791;28;20018;-92
2023/10/22 01:14:27;;;;;;;4.20;3.90;;;10.70;98.60;;;;;;5006790;28;20037;-90
2023/10/22 01:16:53;;;;;;;2.38;2.17;;;10.70;98.30;;;;;;5006215;28;20030;-90
2023/10/22 01:19:19;;;;;;;3.38;2.60;;;10.70;98.10;;;;;;4999446;28;20524;-91
2023/10/22 01:21:44;;;;;;;2.63;2.38;;;10.70;98.00;;;;;;4997052;28;20027;-89
2023/10/22 01:24:10;;;;;;;3.90;2.80;;;10.80;97.70;;;;;;5004695;28;20082;-89
2023/10/22 01:26:42;;;;;;;3.97;3.40;;;10.80;97.50;;;;;;5001605;28;20031;-90
2023/10/22 01:29:08;;;;;;;2.90;2.70;;;10.80;97.40;;;;;;4971533;28;20063;-88
2023/10/22 01:31:33;;;;;;;4.45;2.72;;;10.90;97.30;;;;;;5008543;28;20034;-88
2023/10/22 01:34:00;;;;;;;2.83;2.63;;;10.90;97.20;;;;;;4986872;28;20023;-91
2023/10/22 01:36:26;;;;;;;3.33;3.03;;;10.90;97.20;;;;;;4991146;28;20026;-88
2023/10/22 01:38:52;;;;;;;3.95;3.63;;;10.80;97.20;;;;;;5015831;28;20022;-91
2023/10/22 01:41:18;;;;;;;3.30;3.10;;;10.90;97.50;;;;;;5003348;28;20034;-90
2023/10/22 01:43:43;;;;;;;1.85;1.38;;;10.80;97.20;;;;;;5002914;28;20382;-89
2023/10/22 01:46:09;;;;;;;2.72;2.53;;;10.90;97.20;;;;;;5020892;28;20038;-90
2023/10/22 01:48:34;;;;;;;3.13;2.83;;;10.90;96.70;;;;;;5008091;28;20022;-90
2023/10/22 01:51:00;;;;;;;3.85;3.47;;;11.00;96.50;;;;;;5001312;28;20504;-90
2023/10/22 01:53:25;;;;;;;3.80;3.50;;;11.00;96.20;;;;;;4982376;28;20037;-90
2023/10/22 01:55:51;;;;;;;2.47;2.28;;;10.90;96.40;;;;;;5009574;28;20082;-88
2023/10/22 01:58:17;;;;;;;3.30;3.00;;;10.90;96.30;;;;;;5000747;28;20037;-90
2023/10/22 02:00:42;;;;;;;3.25;3.05;;;10.90;96.50;;;;;;5003093;28;20022;-88
2023/10/22 02:03:08;;;;;;;3.78;3.47;;;10.90;96.30;;;;;;5018412;28;20054;-89
2023/10/22 02:05:34;;;;;;;2.28;2.00;;;10.90;96.30;;;;;;5002592;28;20053;-90
2023/10/22 02:08:03;;;;;;;4.07;3.38;;;11.00;96.30;;;;;;5003171;28;20038;-91
2023/10/22 02:10:30;;;;;;;3.78;3.47;;;10.90;96.60;;;;;;5007431;28;20027;-90
2023/10/22 02:12:56;;;;;;;4.32;2.78;;;10.90;96.50;;;;;;5009099;28;20034;-90
2023/10/22 02:15:23;;;;;;;3.80;2.65;;;10.90;96.40;;;;;;4994760;28;20026;-91
2023/10/22 02:17:48;;;;;;;2.63;2.47;;;10.90;96.40;;;;;;5004863;28;20041;-89
2023/10/22 02:20:14;;;;;;;2.58;1.65;;;10.90;96.50;;;;;;5022660;28;20014;-91
2023/10/22 02:22:40;;;;;;;3.13;2.92;;;10.80;96.50;;;;;;5022297;28;20018;-90
2023/10/22 02:25:07;;;;;;;4.38;4.05;;;10.80;96.50;;;;;;5000050;28;20094;-91
2023/10/22 02:27:35;;;;;;;2.90;2.70;;;11.00;96.00;;;;;;4999438;28;20108;-93
2023/10/22 02:30:01;;;;;;;2.97;2.78;;;11.10;95.50;;;;;;5001567;28;20026;-91
2023/10/22 02:32:27;;;;;;;6.90;4.05;;;11.00;95.70;;;;;;5002136;28;20503;-90
2023/10/22 02:34:52;;;;;;;3.58;3.38;;;11.10;95.60;;;;;;5001392;28;20118;-89
2023/10/22 02:37:19;;;;;;;3.22;3.03;;;11.00;95.80;;;;;;4984091;28;20023;-90
2023/10/22 02:39:45;;;;;;;4.40;3.20;;;11.00;95.60;;;;;;5002915;28;20089;-90
2023/10/22 02:42:11;;;;;;;3.35;2.97;;;11.00;95.70;;;;;;5000430;28;20049;-92
2023/10/22 02:44:36;;;;;;;4.30;2.78;;;11.00;95.60;;;;;;5020915;28;20022;-89
2023/10/22 02:47:02;;;;;;;4.50;4.28;;;11.00;95.90;;;;;;5019043;28;20026;-89
2023/10/22 02:49:30;;;;;;;3.67;2.95;;;11.00;95.80;;;;;;4992940;28;20026;-89
2023/10/22 02:51:56;;;;;;;3.90;3.47;;;11.00;96.10;;;;;;4992824;28;20090;-89
2023/10/22 02:54:21;;;;;;;3.60;2.72;;;10.90;96.20;;;;;;5003028;28;20057;-89
2023/10/22 02:56:47;;;;;;;3.13;2.25;;;10.90;96.50;;;;;;5004619;28;20113;-89
2023/10/22 02:59:13;;;;;;;3.30;2.60;;;10.90;96.90;;;;;;5009091;28;20535;-91
2023/10/22 03:01:39;;;;;;;3.17;2.28;;;10.80;97.00;;;;;;5001496;28;20014;-89
2023/10/22 03:04:04;;;;;;;3.85;3.55;;;10.80;97.10;;;;;;4999190;28;20089;-90
2023/10/22 03:06:30;;;;;;;4.22;4.03;;;10.80;97.10;;;;;;4994851;28;20112;-88
2023/10/22 03:08:56;;;;;;;3.60;2.97;;;10.70;97.20;;;;;;5000196;28;20041;-89
2023/10/22 03:11:21;;;;;;;3.85;2.85;;;10.80;97.00;;;;;;5009218;28;20082;-90
2023/10/22 03:13:49;;;;;;;4.05;3.67;;;10.70;97.00;;;;;;5015461;28;20093;-90
2023/10/22 03:16:15;;;;;;;4.22;3.50;;;10.70;97.10;;;;;;5004461;28;20023;-92
2023/10/22 03:18:41;;;;;;;4.05;3.17;;;10.70;97.10;;;;;;5011288;28;20022;-91
2023/10/22 03:21:11;;;;;;;3.22;2.92;;;10.70;97.10;;;;;;4986581;28;20037;-89
2023/10/22 03:23:43;;;;;;;3.35;2.40;;;10.70;97.90;;;;;;4994104;28;20050;-90
2023/10/22 03:26:11;;;;;;;4.15;3.70;;;10.70;97.50;;;;;;5008211;28;20025;-87
2023/10/22 03:28:38;;;;;;;2.35;1.85;;;10.70;97.30;;;;;;4981878;28;20030;-90
2023/10/22 03:31:04;;;;;;;3.83;3.53;;;10.70;97.30;;;;;;4993754;28;20106;-89
2023/10/22 03:33:31;;;;;;;2.22;1.73;;;10.70;97.10;;;;;;5001661;28;20026;-90
2023/10/22 03:35:58;;;;;;;3.17;2.97;;;10.70;97.10;;;;;;4977670;28;20029;-90
2023/10/22 03:38:24;;;;;;;3.33;3.13;;;10.60;96.90;;;;;;5014118;28;20025;-91
2023/10/22 03:40:59;;;;;;;3.83;2.85;;;10.70;97.00;;;;;;5024005;28;20022;-92
2023/10/22 03:43:26;;;;;;;4.93;2.90;;;10.60;96.70;;;;;;5006643;28;20049;-92
2023/10/22 03:45:52;;;;;;;2.80;2.13;;;10.70;96.50;;;;;;4999711;28;20021;-93
2023/10/22 03:48:17;;;;;;;3.70;3.38;;;10.70;96.60;;;;;;5024275;28;20066;-92
2023/10/22 03:50:44;;;;;;;4.63;1.02;;;10.70;96.40;;;;;;5007882;28;20407;-88
2023/10/22 03:53:10;;;;;;;5.53;3.92;;;10.70;96.50;;;;;;4985106;28;20019;-90
2023/10/22 03:55:37;;;;;;;3.05;2.88;;;10.70;96.20;;;;;;5000360;28;20279;-90
2023/10/22 03:58:02;;;;;;;4.70;4.43;;;10.70;96.70;;;;;;5000142;28;20073;-89
2023/10/22 04:00:28;;;;;;;3.20;2.90;;;10.80;95.40;;;;;;4982187;28;20446;-88
2023/10/22 04:02:53;;;;;;;3.15;2.20;;;10.80;95.00;;;;;;4998777;28;20034;-89
2023/10/22 04:05:22;;;;;;;2.67;2.50;;;10.90;94.60;;;;;;5008882;28;20061;-91
2023/10/22 04:07:49;;;;;;;3.78;3.58;;;10.90;94.20;;;;;;5015889;28;20056;-89
2023/10/22 04:10:15;;;;;;;2.92;2.72;;;10.90;94.60;;;;;;5008814;28;20031;-90
2023/10/22 04:12:40;;;;;;;3.42;3.17;;;10.90;94.00;;;;;;5000286;28;20026;-91
2023/10/22 04:15:07;;;;;;;2.80;2.60;;;10.90;94.10;;;;;;4982443;28;20058;-88
2023/10/22 04:17:33;;;;;;;2.50;2.30;;;10.90;94.20;;;;;;5000410;28;20029;-90
2023/10/22 04:19:58;;;;;;;3.25;2.53;;;10.90;94.50;;;;;;5009308;28;20763;-91
2023/10/22 04:22:24;;;;;;;3.65;2.83;;;10.90;94.50;;;;;;5022446;28;20022;-90
2023/10/22 04:24:50;;;;;;;2.42;1.80;;;10.80;94.60;;;;;;5024392;28;20374;-90
2023/10/22 04:27:15;;;;;;;2.63;2.42;;;10.80;94.40;;;;;;5023102;28;20148;-89
2023/10/22 04:29:43;;;;;;;3.85;3.55;;;10.80;94.50;;;;;;5023474;28;20034;-91
2023/10/22 04:32:08;;;;;;;3.20;3.00;;;10.80;94.60;;;;;;4996229;28;20022;-89
2023/10/22 04:34:35;;;;;;;2.90;2.60;;;10.80;94.10;;;;;;5000590;28;20030;-88
2023/10/22 04:37:01;;;;;;;3.25;2.65;;;10.90;94.20;;;;;;5002491;28;20031;-89
2023/10/22 04:39:26;;;;;;;4.03;3.70;;;10.90;94.20;;;;;;4990552;28;20048;-89
2023/10/22 04:41:52;;;;;;;4.05;3.03;;;10.90;93.90;;;;;;5023700;28;20018;-89
2023/10/22 04:44:19;;;;;;;2.30;2.10;;;10.90;93.70;;;;;;5021459;28;20114;-88
2023/10/22 04:46:45;;;;;;;1.92;1.83;;;10.90;93.60;;;;;;5005203;28;20026;-90
2023/10/22 04:49:10;;;;;;;4.20;2.47;;;11.00;93.80;;;;;;4995940;28;20069;-89
2023/10/22 04:51:37;;;;;;;3.30;3.10;;;11.00;93.70;;;;;;5004592;28;20042;-90
2023/10/22 04:54:03;;;;;;;3.72;2.88;;;11.00;93.40;;;;;;5012572;28;20028;-88
2023/10/22 04:56:29;;;;;;;4.15;2.80;;;11.00;93.40;;;;;;4996103;28;20089;-89
2023/10/22 04:58:54;;;;;;;3.88;3.45;;;11.10;93.10;;;;;;5002093;28;20018;-90
2023/10/22 05:01:20;;;;;;;2.75;2.65;;;11.00;93.00;;;;;;5007395;28;20030;-91
2023/10/22 05:03:46;;;;;;;3.13;2.95;;;11.10;92.30;;;;;;5014353;28;20034;-90
2023/10/22 05:06:11;;;;;;;2.85;2.65;;;11.10;92.50;;;;;;5010857;28;20034;-90
2023/10/22 05:08:40;;;;;;;4.97;2.78;;;11.10;92.60;;;;;;5015924;28;20117;-88
2023/10/22 05:11:11;;;;;;;2.70;2.53;;;11.10;92.60;;;;;;5002103;28;20524;-90
2023/10/22 05:13:37;;;;;;;3.30;3.03;;;11.10;92.50;;;;;;5017487;28;20098;-89
2023/10/22 05:16:02;;;;;;;2.75;2.55;;;11.10;92.30;;;;;;5021481;28;20101;-90
2023/10/22 05:18:28;;;;;;;3.30;3.10;;;11.10;92.40;;;;;;5002773;28;20026;-88
2023/10/22 05:21:01;;;;;;;2.60;1.83;;;11.00;92.20;;;;;;5019594;28;20079;-90
2023/10/22 05:23:27;;;;;;;2.70;2.47;;;11.00;92.80;;;;;;4997661;28;20040;-89
2023/10/22 05:26:06;;;;;;;2.75;2.55;;;10.90;93.00;;;;;;4996123;28;20026;-89
2023/10/22 05:28:31;;;;;;;3.28;2.78;;;10.90;93.80;;;;;;4995848;28;20057;-90
2023/10/22 05:30:57;;;;;;;3.58;3.28;;;10.90;93.20;;;;;;4988324;28;20034;-90
2023/10/22 05:33:23;;;;;;;4.15;3.28;;;10.80;93.40;;;;;;5004403;28;20345;-90
2023/10/22 05:35:48;;;;;;;3.55;2.63;;;10.90;93.00;;;;;;5004756;28;20054;-89
2023/10/22 05:38:14;;;;;;;4.45;2.28;;;10.90;92.70;;;;;;5014591;28;20522;-89
2023/10/22 05:40:39;;;;;;;2.63;1.75;;;10.90;92.50;;;;;;5006193;28;20030;-88
2023/10/22 05:43:05;;;;;;;2.90;2.65;;;10.90;92.50;;;;;;5022897;28;20018;-89
2023/10/22 05:45:32;;;;;;;3.17;2.03;;;10.90;92.70;;;;;;5017376;28;20071;-89
2023/10/22 05:47:57;;;;;;;2.53;2.28;;;10.90;92.90;;;;;;5003511;28;20117;-91
2023/10/22 05:50:23;;;;;;;4.80;3.95;;;10.90;93.20;;;;;;4994856;28;20528;-89
2023/10/22 05:52:50;;;;;;;3.65;3.35;;;10.80;93.40;;;;;;4998181;28;20547;-89
2023/10/22 05:55:16;;;;;;;3.20;2.30;;;10.80;93.50;;;;;;4987966;28;20030;-90
2023/10/22 05:57:45;;;;;;;3.95;2.03;;;10.80;93.40;;;;;;5003722;28;20411;-90
2023/10/22 06:00:12;;;;;;;2.88;2.50;;;10.80;93.60;;;;;;5003064;28;20022;-90
2023/10/22 06:02:37;;;;;;;3.55;2.05;;;10.80;93.70;;;;;;4999700;28;20026;-88
2023/10/22 06:05:04;;;;;;;2.70;2.47;;;10.80;93.60;;;;;;4993035;28;20520;-89
2023/10/22 06:07:30;;;;;;;4.20;3.30;;;10.80;93.70;;;;;;5003625;28;20044;-90
2023/10/22 06:09:56;;;;;;;4.00;3.47;;;10.90;93.00;;;;;;5004592;28;20022;-89
2023/10/22 06:12:21;;;;;;;2.42;2.22;;;11.00;92.70;;;;;;5016057;28;20149;-89
2023/10/22 06:14:47;;;;;;;4.30;1.80;;;11.10;92.20;;;;;;4999316;28;20062;-90
2023/10/22 06:17:12;;;;;;;3.15;2.45;;;11.10;91.50;;;;;;5000446;28;20028;-93
2023/10/22 06:19:38;;;;;;;3.05;2.47;;;11.30;91.10;;;;;;5000629;28;20026;-90
2023/10/22 06:22:04;;;;;;;3.63;3.00;;;11.40;91.30;;;;;;5005678;28;20050;-90
2023/10/22 06:24:30;;;;;;;3.63;3.20;;;11.40;89.80;;;;;;4991681;28;20019;-89
2023/10/22 06:26:55;;;;;;;3.50;2.58;;;11.60;89.70;;;;;;5005339;28;20027;-91
2023/10/22 06:29:21;;;;;;;4.22;2.78;;;11.60;89.10;;;;;;5011561;28;20476;-91
2023/10/22 06:31:47;;;;;;;3.30;2.95;;;11.70;88.50;;;;;;4986132;28;20452;-90
2023/10/22 06:34:12;;;;;;;2.30;2.17;;;11.80;87.80;;;;;;4963618;28;20606;-91
2023/10/22 06:36:38;;;;;;;3.00;1.75;;;11.90;87.50;;;;;;4995128;28;20381;-91
2023/10/22 06:39:04;;;;;;;1.92;0.70;;;12.00;87.60;;;;;;4999191;28;20388;-90
2023/10/22 06:41:29;;;;;;;3.47;2.78;;;12.10;87.00;;;;;;4999327;28;20023;-90
2023/10/22 06:43:55;;;;;;;6.30;2.13;;;12.10;86.60;;;;;;4983391;28;20087;-91
2023/10/22 06:46:21;;;;;;;4.18;2.83;;;12.20;85.80;;;;;;5017059;28;20130;-91
2023/10/22 06:48:48;;;;;;;3.42;2.70;;;12.20;86.40;;;;;;5010827;28;20519;-92
2023/10/22 06:51:16;;;;;;;4.95;1.83;;;12.30;86.80;;;;;;4998104;28;20514;-91
2023/10/22 06:53:43;;;;;;;3.20;1.98;;;12.30;85.90;;;;;;4990696;28;20030;-91
2023/10/22 06:56:09;;;;;;;2.28;1.98;;;12.30;85.00;;;;;;5004520;28;20602;-91
2023/10/22 06:58:36;;;;;;;3.00;2.45;;;12.30;85.50;;;;;;4992471;28;20030;-91
2023/10/22 07:01:05;;;;;;;2.63;2.42;;;12.30;85.90;;;;;;4996563;28;20074;-90
2023/10/22 07:03:34;;;;;;;4.68;2.78;;;12.30;85.70;;;;;;4986260;28;20046;-92
2023/10/22 07:06:00;;;;;;;3.88;3.47;;;12.30;85.50;;;;;;4972411;28;20046;-89
2023/10/22 07:08:26;;;;;;;3.05;2.72;;;12.20;86.10;;;;;;5004469;28;20030;-90
2023/10/22 07:10:52;;;;;;;4.55;2.85;;;12.20;86.60;;;;;;4993375;28;20035;-90
2023/10/22 07:13:20;;;;;;;3.50;3.25;;;12.10;86.80;;;;;;4962675;28;20041;-90
2023/10/22 07:15:49;;;;;;;3.40;3.10;;;12.10;86.90;;;;;;4993326;28;20033;-90
2023/10/22 07:18:14;;;;;;;3.63;3.00;;;12.00;87.10;;;;;;4992234;28;20018;-93
2023/10/22 07:20:40;;;;;;;3.97;2.88;;;12.00;86.90;;;;;;5005139;28;20034;-90
2023/10/22 07:23:07;;;;;;;4.70;2.75;;;12.00;87.70;;;;;;5003788;28;20041;-90
2023/10/22 07:25:33;;;;;;;6.00;2.60;;;12.00;87.80;;;;;;4999373;28;20027;-91
2023/10/22 07:27:59;;;;;;;4.43;2.90;;;12.00;87.40;;;;;;4996752;28;20110;-92
2023/10/22 07:30:24;;;;;;;2.55;2.35;;;12.00;87.60;;;;;;5012309;28;20064;-90
2023/10/22 07:32:52;;;;;;;2.97;0.63;;;12.00;87.80;;;;;;5009589;28;20457;-89
2023/10/22 07:35:18;;;;;;;5.45;2.85;;;12.00;87.50;;;;;;4986912;28;20038;-89
2023/10/22 07:37:44;;;;;;;3.90;2.55;;;12.00;87.70;;;;;;5010058;28;20034;-90
2023/10/22 07:40:14;;;;;;;5.25;3.22;;;12.10;87.30;;;;;;4998856;28;20010;-91
2023/10/22 07:42:40;;;;;;;4.85;2.13;;;12.10;87.60;;;;;;5011231;28;20086;-94
2023/10/22 07:45:07;;;;;;;2.00;1.80;;;12.20;87.60;;;;;;5008747;28;20014;-95
2023/10/22 07:47:32;;;;;;;3.00;2.70;;;12.30;88.10;;;;;;5014082;28;20025;-95
2023/10/22 07:49:58;;;;;;;3.65;2.47;;;12.30;87.60;;;;;;5019482;28;20074;-94
2023/10/22 07:52:24;;;;;;;3.95;2.95;;;12.40;87.50;;;;;;5011922;28;20018;-95
2023/10/22 07:54:52;;;;;;;6.07;2.58;;;12.50;86.90;;;;;;5028428;28;20014;-96
2023/10/22 07:57:18;;;;;;;3.95;1.77;;;12.60;85.10;;;;;;4999687;28;20146;-93
2023/10/22 07:59:44;;;;;;;4.10;2.58;;;12.70;84.70;;;;;;5012530;28;20053;-92
2023/10/22 08:02:10;;;;;;;4.57;2.72;;;12.80;85.30;;;;;;5015457;28;20018;-94
2023/10/22 08:04:37;;;;;;;6.07;3.78;;;12.90;85.50;;;;;;4984897;28;20041;-91
2023/10/22 08:07:04;;;;;;;2.47;2.33;;;13.00;84.90;;;;;;4997010;28;20026;-92
2023/10/22 08:09:30;;;;;;;12.82;2.58;;;13.10;83.50;;;;;;4992269;28;20113;-92
2023/10/22 08:11:56;;;;;;;6.55;3.35;;;13.30;83.50;;;;;;4981459;28;20036;-91
2023/10/22 08:14:22;;;;;;;4.13;2.17;;;13.40;81.80;;;;;;5003589;28;20057;-90
2023/10/22 08:16:49;;;;;;;3.78;2.00;;;13.40;80.00;;;;;;4992007;28;20099;-91
2023/10/22 08:19:15;;;;;;;3.40;1.55;;;13.50;78.40;;;;;;4994944;28;20033;-91
2023/10/22 08:21:40;;;;;;;4.22;1.58;;;13.60;80.40;;;;;;5000695;28;20489;-90
2023/10/22 08:24:06;;;;;;;3.38;1.95;;;13.60;80.30;;;;;;4997182;28;20026;-91
2023/10/22 08:26:32;;;;;;;2.42;1.45;;;13.70;77.70;;;;;;4979999;28;20126;-90
2023/10/22 08:28:58;;;;;;;4.30;2.13;;;13.70;79.80;;;;;;4979415;28;20053;-90
2023/10/22 08:31:23;;;;;;;3.42;1.77;;;13.70;79.30;;;;;;5005576;28;20149;-91
2023/10/22 08:33:49;;;;;;;3.85;2.55;;;13.80;78.70;;;;;;4984626;28;20130;-91
2023/10/22 08:36:15;;;;;;;2.83;2.25;;;13.80;79.20;;;;;;5000589;28;20112;-90
2023/10/22 08:38:41;;;;;;;3.90;2.03;;;13.90;80.00;;;;;;5000523;28;20650;-90
2023/10/22 08:41:26;;;;;;;2.72;2.25;;;14.00;79.60;;;;;;5009013;28;20048;-91
2023/10/22 08:43:51;;;;;;;6.60;1.67;;;14.00;78.40;;;;;;4994560;28;20037;-93
2023/10/22 08:46:20;;;;;;;3.95;2.03;;;14.10;78.10;;;;;;5005765;28;20070;-92
2023/10/22 08:48:46;;;;;;;2.47;1.73;;;14.00;78.90;;;;;;4980069;28;20034;-89
2023/10/22 08:51:15;;;;;;;4.13;1.73;;;14.00;78.90;;;;;;4991360;28;20038;-90
2023/10/22 08:53:43;;;;;;;6.03;1.80;;;13.90;78.60;;;;;;4993878;28;20034;-89
2023/10/22 08:56:15;;;;;;;2.25;1.48;;;13.90;79.50;;;;;;4998836;28;20110;-91
2023/10/22 08:58:40;;;;;;;2.42;1.20;;;13.90;79.40;;;;;;5002843;28;20030;-92
2023/10/22 09:01:06;;;;;;;1.75;1.48;;;14.10;79.20;;;;;;5015927;28;20022;-91
2023/10/22 09:03:32;;;;;;;6.10;2.42;;;14.20;77.20;;;;;;4987224;28;20093;-91
2023/10/22 09:05:58;;;;;;;3.88;1.90;;;14.30;76.50;;;;;;5015025;28;20038;-90
2023/10/22 09:08:43;;;;;;;3.65;2.92;;;14.30;76.70;;;;;;4990880;28;20033;-88
2023/10/22 09:11:13;;;;;;;2.35;0.90;;;14.30;76.10;;;;;;4986421;28;20374;-92
2023/10/22 09:13:39;;;;;;;3.65;1.88;;;14.40;74.60;;;;;;5013486;28;20092;-91
2023/10/22 09:16:05;;;;;;;4.30;1.73;;;14.40;76.20;;;;;;5013285;28;20085;-91
2023/10/22 09:18:30;;;;;;;6.18;1.85;;;14.50;77.20;;;;;;5000430;28;20026;-92
2023/10/22 09:21:08;;;;;;;3.33;1.33;;;14.60;75.60;;;;;;5009130;28;20110;-90
2023/10/22 09:23:34;;;;;;;2.95;2.17;;;14.80;74.20;;;;;;5001065;28;20029;-90
2023/10/22 09:25:59;;;;;;;3.00;2.33;;;14.90;72.70;;;;;;4983632;28;20026;-90
2023/10/22 09:28:29;;;;;;;6.65;2.15;;;15.00;74.10;;;;;;4991318;28;20014;-92
2023/10/22 09:30:58;;;;;;;2.70;1.55;;;15.10;73.40;;;;;;5000692;28;20033;-90
2023/10/22 09:33:33;;;;;;;1.85;1.35;;;15.20;72.10;;;;;;4982618;28;20026;-91
2023/10/22 09:36:03;;;;;;;6.53;2.17;;;15.20;72.50;;;;;;4991292;28;20026;-91
2023/10/22 09:38:46;;;;;;;4.03;1.88;;;15.30;71.90;;;;;;4999457;28;20027;-90
2023/10/22 09:41:18;;;;;;;4.30;1.35;;;15.50;71.70;;;;;;5000231;28;20026;-91
2023/10/22 09:43:44;;;;;;;3.80;2.15;;;15.60;70.00;;;;;;4993404;28;20018;-91
2023/10/22 09:46:10;;;;;;;8.63;2.22;;;15.60;69.30;;;;;;4999499;28;20037;-90
2023/10/22 09:48:35;;;;;;;5.13;1.50;;;15.60;69.80;;;;;;4983997;28;20045;-88
2023/10/22 09:51:05;;;;;;;7.03;2.45;;;15.60;68.70;;;;;;4999121;28;20034;-92
2023/10/22 09:53:38;;;;;;;4.35;2.53;;;15.80;68.20;;;;;;4995112;28;20031;-90
2023/10/22 09:56:06;;;;;;;5.85;2.35;;;15.70;66.80;;;;;;4986733;28;20030;-91
2023/10/22 09:58:39;;;;;;;4.90;1.83;;;15.80;67.30;;;;;;5008932;28;20068;-93
2023/10/22 10:01:09;;;;;;;4.25;2.55;;;16.00;67.60;;;;;;4997182;28;20025;-91
2023/10/22 10:03:36;;;;;;;5.38;2.25;;;16.20;65.90;;;;;;4992398;28;20018;-90
2023/10/22 10:06:05;;;;;;;4.80;2.65;;;16.30;65.50;;;;;;5000267;28;20037;-89
2023/10/22 10:08:31;;;;;;;7.30;3.15;;;16.50;65.40;;;;;;4997023;28;20041;-91
2023/10/22 10:10:57;;;;;;;5.97;1.92;;;16.60;62.90;;;;;;5006156;28;20025;-91
2023/10/22 10:13:23;;;;;;;3.05;2.08;;;16.70;63.70;;;;;;5014684;28;20022;-90
2023/10/22 10:15:59;;;;;;;11.02;3.20;;;16.70;64.00;;;;;;5008173;28;20102;-90
2023/10/22 10:19:01;;;;;;;8.50;2.28;;;17.00;62.50;;;;;;4993556;28;20054;-87
2023/10/22 10:21:36;;;;;;;5.80;2.78;;;16.80;61.80;;;;;;5006485;28;20069;-92
2023/10/22 10:24:21;;;;;;;4.72;2.95;;;16.70;61.10;;;;;;5006631;28;20022;-88
2023/10/22 10:27:11;;;;;;;6.00;2.60;;;16.60;63.30;;;;;;5014303;28;20037;-91
2023/10/22 10:29:37;;;;;;;3.97;0.60;;;17.20;60.40;;;;;;4968046;28;20507;-90
2023/10/22 10:32:15;;;;;;;7.03;2.15;;;17.50;59.50;;;;;;5010108;28;20027;-90
2023/10/22 10:34:41;;;;;;;4.40;1.92;;;17.70;59.60;;;;;;4984311;28;20041;-90
2023/10/22 10:37:11;;;;;;;5.15;2.65;;;17.80;58.30;;;;;;5006886;28;20377;-88
2023/10/22 10:39:50;;;;;;;3.85;2.30;;;17.90;57.00;;;;;;4981887;28;20550;-90
2023/10/22 10:42:31;;;;;;;5.05;2.15;;;17.60;57.80;;;;;;5004224;28;20079;-89
2023/10/22 10:44:57;;;;;;;;;;;;;;;;;;;;;
2023/10/22 10:47:24;;;;;;;5.22;4.45;;;17.70;57.80;;;;;;4994123;28;20034;-91
2023/10/22 10:50:10;;;;;;;4.78;2.40;;;17.60;57.30;;;;;;5001277;28;20253;-89
2023/10/22 10:52:41;;;;;;;4.25;2.38;;;17.50;58.50;;;;;;4999180;28;20026;-89
2023/10/22 10:55:20;;;;;;;3.53;1.80;;;17.70;59.10;;;;;;5015014;28;20029;-89
2023/10/22 10:57:51;;;;;;;4.32;2.33;;;18.10;58.20;;;;;;5008900;28;20108;-89
2023/10/22 11:00:21;;;;;;;4.28;3.17;;;18.30;56.80;;;;;;4999560;28;20026;-92
2023/10/22 11:02:50;;;;;;;2.60;1.85;;;18.00;56.20;;;;;;4999660;28;20043;-90
2023/10/22 11:05:28;;;;;;;6.30;2.35;;;17.50;58.60;;;;;;5001864;28;20026;-91
2023/10/22 11:07:55;;;;;;;3.50;2.67;;;17.10;60.70;;;;;;4998836;28;20034;-90
2023/10/22 11:10:20;;;;;;;5.15;2.53;;;17.20;59.80;;;;;;5004841;28;20023;-90
2023/10/22 11:12:46;;;;;;;4.20;2.45;;;17.60;59.30;;;;;;4997544;28;20053;-90
2023/10/22 11:15:13;;;;;;;4.28;2.85;;;17.80;57.20;;;;;;4988105;28;20026;-94
2023/10/22 11:17:45;;;;;;;4.45;2.28;;;18.20;56.50;;;;;;4997378;28;20038;-92
2023/10/22 11:20:13;;;;;;;3.58;2.05;;;18.60;56.40;;;;;;5005260;28;20007;-92
2023/10/22 11:22:39;;;;;;;4.72;2.47;;;18.90;55.10;;;;;;4995429;28;20089;-93
2023/10/22 11:25:10;;;;;;;2.63;1.70;;;19.10;53.00;;;;;;5016557;28;20036;-91
2023/10/22 11:27:37;;;;;;;5.60;1.52;;;19.10;52.70;;;;;;5007309;28;20416;-90
2023/10/22 11:30:03;;;;;;;3.35;3.05;;;18.70;53.80;;;;;;5006754;28;20026;-91
2023/10/22 11:32:29;;;;;;;3.08;1.73;;;18.30;55.10;;;;;;5015676;28;20357;-91
2023/10/22 11:35:02;;;;;;;3.88;3.50;;;17.90;56.90;;;;;;5008513;28;20029;-90
2023/10/22 11:37:30;;;;;;;3.95;2.60;;;17.50;58.70;;;;;;4988466;28;20049;-91
2023/10/22 11:39:57;;;;;;;2.88;2.25;;;17.50;59.80;;;;;;4980479;28;20113;-91
2023/10/22 11:42:33;;;;;;;5.10;2.47;;;17.80;58.90;;;;;;4995187;28;20027;-92
2023/10/22 11:45:12;;;;;;;9.55;2.80;;;18.20;55.90;;;;;;4996359;28;20026;-90
2023/10/22 11:47:38;;;;;;;3.90;2.03;;;18.40;54.80;;;;;;4994889;28;20032;-90
2023/10/22 11:50:04;;;;;;;5.88;3.35;;;17.90;56.70;;;;;;4989586;28;20089;-91
2023/10/22 11:52:54;;;;;;;3.70;2.33;;;17.70;56.50;;;;;;5013333;28;20014;-90
2023/10/22 11:55:20;;;;;;;3.95;1.52;;;17.40;57.40;;;;;;4991509;28;20165;-92
2023/10/22 11:57:46;;;;;;;4.40;2.60;;;17.60;58.10;;;;;;4989197;28;20045;-90
2023/10/22 12:00:15;;;;;;;4.30;2.63;;;17.70;58.10;;;;;;4978103;28;20030;-92
2023/10/22 12:02:40;;;;;;;2.67;2.15;;;17.60;58.80;;;;;;4993653;28;20027;-90
2023/10/22 12:05:06;;;;;;;5.85;2.88;;;17.40;58.10;;;;;;5004078;28;20029;-91
2023/10/22 12:07:35;;;;;;;4.07;1.73;;;17.30;58.70;;;;;;4982509;28;20427;-89
2023/10/22 12:10:00;;;;;;;3.97;1.58;;;17.30;60.10;;;;;;4985992;28;20105;-89
2023/10/22 12:12:33;;;;;;;5.57;2.38;;;17.40;58.30;;;;;;4997084;28;20101;-90
2023/10/22 12:15:04;;;;;;;3.42;1.75;;;17.80;58.70;;;;;;4997931;28;20022;-89
2023/10/22 12:17:32;;;;;;;2.78;2.03;;;18.00;56.80;;;;;;5008994;28;20021;-91
2023/10/22 12:19:59;;;;;;;5.18;2.33;;;18.30;56.50;;;;;;5013569;28;20589;-88
2023/10/22 12:22:25;;;;;;;6.82;3.70;;;19.00;53.30;;;;;;4995482;28;20473;-90
2023/10/22 12:24:57;;;;;;;2.97;2.35;;;18.80;53.20;;;;;;5005573;28;20037;-89
2023/10/22 12:27:22;;;;;;;4.55;2.55;;;19.00;52.40;;;;;;5016259;28;20033;-90
2023/10/22 12:29:51;;;;;;;4.22;2.83;;;19.20;50.90;;;;;;4998665;28;20033;-91
2023/10/22 12:32:17;;;;;;;3.30;2.08;;;19.60;50.40;;;;;;5013423;28;20032;-90
2023/10/22 12:34:46;;;;;;;2.28;2.05;;;20.40;50.10;;;;;;4986855;28;20033;-91
2023/10/22 12:37:17;;;;;;;4.05;2.08;;;20.60;48.30;;;;;;4998099;28;20018;-91
2023/10/22 12:39:47;;;;;;;3.33;2.60;;;20.30;47.80;;;;;;5013809;28;20014;-91
2023/10/22 12:42:12;;;;;;;2.40;1.88;;;20.50;48.60;;;;;;5015086;28;20026;-90
2023/10/22 12:44:47;;;;;;;3.47;2.13;;;20.40;49.20;;;;;;4987556;28;20026;-89
2023/10/22 12:47:16;;;;;;;2.60;1.83;;;19.30;50.50;;;;;;4979644;28;20051;-90
2023/10/22 12:49:47;;;;;;;2.95;2.65;;;19.10;52.80;;;;;;5009999;28;20496;-90